Time;durP1;ratioP1;P1;durP2;ratioP2;P2;SDS_P1;SDS_P2;PMS_P1;PMS_P2;Temp;Humidity;BMP_temperature;BMP_pressure;BME280_temperature;BME280_humidity;BME280_pressure;Samples;Min_cycle;Max_cycle;Signal;HPM_P1;HPM_P2
2021/03/18 00:01:14;;;;;;;2.00;1.00;;;20.10;37.90;;;;;;5071703;28;20099;-76
2021/03/18 00:03:41;;;;;;;2.55;1.23;;;20.10;37.90;;;;;;5094048;28;20024;-75
2021/03/18 00:06:07;;;;;;;2.50;1.33;;;20.10;37.90;;;;;;5093078;28;20027;-76
2021/03/18 00:08:32;;;;;;;2.50;0.93;;;20.10;37.90;;;;;;5076064;28;20028;-76
2021/03/18 00:10:59;;;;;;;1.40;1.20;;;20.00;37.90;;;;;;5075454;28;20024;-76
2021/03/18 00:13:26;;;;;;;2.45;1.17;;;20.00;37.70;;;;;;5076032;28;20028;-75
2021/03/18 00:15:51;;;;;;;3.50;1.35;;;20.00;37.80;;;;;;5075802;28;20121;-75
2021/03/18 00:18:18;;;;;;;2.13;1.23;;;20.00;37.80;;;;;;5075500;28;20503;-75
2021/03/18 00:20:44;;;;;;;2.20;0.80;;;20.00;37.80;;;;;;5075617;28;20100;-75
2021/03/18 00:23:09;;;;;;;2.63;1.00;;;20.00;37.80;;;;;;5093389;28;20451;-75
2021/03/18 00:25:35;;;;;;;1.48;0.98;;;20.00;37.80;;;;;;5083894;28;20036;-75
2021/03/18 00:28:01;;;;;;;3.53;1.08;;;20.00;37.80;;;;;;5075485;28;20047;-75
2021/03/18 00:30:26;;;;;;;1.52;0.82;;;20.00;37.80;;;;;;5093319;28;20503;-74
2021/03/18 00:32:52;;;;;;;4.10;1.20;;;20.00;37.80;;;;;;5074832;28;20475;-74
2021/03/18 00:35:21;;;;;;;1.20;0.90;;;20.00;37.70;;;;;;5092437;28;20432;-74
2021/03/18 00:37:47;;;;;;;2.53;1.02;;;19.90;37.80;;;;;;5073748;28;20055;-75
2021/03/18 00:40:21;;;;;;;2.15;1.10;;;19.90;37.80;;;;;;5074908;28;20103;-75
2021/03/18 00:43:01;;;;;;;1.63;1.13;;;19.90;37.80;;;;;;5092918;28;20021;-75
2021/03/18 00:45:28;;;;;;;4.00;1.30;;;19.90;37.90;;;;;;5058357;28;20400;-75
2021/03/18 00:47:53;;;;;;;2.08;1.02;;;19.90;38.50;;;;;;5055275;28;20028;-74
2021/03/18 00:50:34;;;;;;;3.13;1.00;;;19.90;38.50;;;;;;5064074;28;20553;-70
2021/03/18 00:53:00;;;;;;;3.00;1.10;;;19.90;37.90;;;;;;5092522;28;20108;-70
2021/03/18 00:55:26;;;;;;;1.52;0.98;;;19.90;37.90;;;;;;5075051;28;20507;-70
2021/03/18 00:57:51;;;;;;;3.30;1.00;;;19.90;37.90;;;;;;5057999;28;20062;-70
2021/03/18 01:00:20;;;;;;;2.42;1.30;;;19.90;37.90;;;;;;5072537;28;20102;-70
2021/03/18 01:02:47;;;;;;;1.88;0.95;;;19.90;38.00;;;;;;5074309;28;20568;-70
2021/03/18 01:05:13;;;;;;;1.35;1.00;;;19.90;38.00;;;;;;5066340;28;20108;-70
2021/03/18 01:07:40;;;;;;;1.88;1.25;;;19.90;38.00;;;;;;5090338;28;20099;-70
2021/03/18 01:10:07;;;;;;;2.22;1.00;;;19.90;37.90;;;;;;5074966;28;20081;-70
2021/03/18 01:12:33;;;;;;;1.83;1.42;;;19.80;37.90;;;;;;5092543;28;20395;-70
2021/03/18 01:14:58;;;;;;;4.45;1.35;;;19.80;37.90;;;;;;5074362;28;20035;-70
2021/03/18 01:17:24;;;;;;;4.30;1.77;;;19.80;38.00;;;;;;5092632;28;20035;-70
2021/03/18 01:19:49;;;;;;;5.55;1.70;;;19.80;37.90;;;;;;5092545;28;20560;-71
2021/03/18 01:22:15;;;;;;;3.90;1.20;;;19.80;38.00;;;;;;5064509;28;20020;-71
2021/03/18 01:24:40;;;;;;;2.92;1.73;;;19.80;38.00;;;;;;5075028;28;20036;-70
2021/03/18 01:27:06;;;;;;;5.40;1.52;;;19.80;38.00;;;;;;5074191;28;20043;-70
2021/03/18 01:29:32;;;;;;;4.40;1.63;;;19.80;38.00;;;;;;5092255;28;20484;-70
2021/03/18 01:31:57;;;;;;;5.28;1.85;;;19.80;38.00;;;;;;5092548;28;20027;-70
2021/03/18 01:34:23;;;;;;;2.10;1.80;;;19.80;38.10;;;;;;5057396;28;20106;-70
2021/03/18 01:36:48;;;;;;;4.18;1.80;;;19.70;38.00;;;;;;5091713;28;20050;-70
2021/03/18 01:39:14;;;;;;;3.00;1.77;;;19.70;38.00;;;;;;5103734;28;20032;-70
2021/03/18 01:41:39;;;;;;;3.28;1.90;;;19.70;38.00;;;;;;5056766;28;20111;-70
2021/03/18 01:44:05;;;;;;;2.72;1.48;;;19.70;38.00;;;;;;5077740;28;20036;-70
2021/03/18 01:46:31;;;;;;;2.75;1.70;;;19.70;38.00;;;;;;5087322;28;20432;-73
2021/03/18 01:48:57;;;;;;;3.17;1.80;;;19.70;38.10;;;;;;5092735;28;20017;-73
2021/03/18 01:51:22;;;;;;;2.97;1.38;;;19.70;38.10;;;;;;5076437;28;20441;-73
2021/03/18 01:53:49;;;;;;;1.50;1.40;;;19.60;38.00;;;;;;5092029;28;20099;-73
2021/03/18 01:56:14;;;;;;;1.80;1.30;;;19.70;38.10;;;;;;5073830;28;20024;-74
2021/03/18 01:58:41;;;;;;;4.18;1.80;;;19.60;38.10;;;;;;5056383;28;20050;-74
2021/03/18 02:01:09;;;;;;;2.08;1.67;;;19.60;38.00;;;;;;5071097;28;20035;-74
2021/03/18 02:03:37;;;;;;;5.00;1.90;;;19.60;38.10;;;;;;5073885;28;20415;-74
2021/03/18 02:06:04;;;;;;;7.32;1.88;;;19.60;38.10;;;;;;5092455;28;20452;-75
2021/03/18 02:08:29;;;;;;;2.63;0.68;;;19.60;38.10;;;;;;5073641;28;20039;-74
2021/03/18 02:10:55;;;;;;;0.52;0.50;;;19.60;38.10;;;;;;5073555;28;20028;-75
2021/03/18 02:13:20;;;;;;;4.53;1.90;;;19.60;38.20;;;;;;5073700;28;20036;-74
2021/03/18 02:15:51;;;;;;;3.22;1.58;;;19.60;38.20;;;;;;5063703;28;20405;-74
2021/03/18 02:18:35;;;;;;;2.67;1.30;;;19.60;38.20;;;;;;5056703;28;21427;-74
2021/03/18 02:21:13;;;;;;;4.18;1.50;;;19.60;38.30;;;;;;5085044;28;20549;-75
2021/03/18 02:23:45;;;;;;;0.15;0.15;;;19.50;38.30;;;;;;5095401;28;20066;-74
2021/03/18 02:26:29;;;;;;;7.97;1.45;;;19.60;38.30;;;;;;5077346;28;20047;-76
2021/03/18 02:29:18;;;;;;;4.47;1.23;;;19.50;38.40;;;;;;5095904;28;20090;-75
2021/03/18 02:32:23;;;;;;;3.45;1.65;;;19.50;38.30;;;;;;5094278;28;20028;-75
2021/03/18 02:34:57;;;;;;;5.88;1.75;;;19.50;38.30;;;;;;5078519;28;20036;-76
2021/03/18 02:37:25;;;;;;;3.40;1.42;;;19.50;38.40;;;;;;5095113;28;20088;-76
2021/03/18 02:39:55;;;;;;;2.65;1.40;;;19.50;38.40;;;;;;5077976;28;20038;-76
2021/03/18 02:42:21;;;;;;;5.22;1.20;;;19.50;38.40;;;;;;5076331;28;20111;-76
2021/03/18 02:44:47;;;;;;;5.88;1.60;;;19.40;38.40;;;;;;5061102;28;20115;-76
2021/03/18 02:47:13;;;;;;;3.42;1.38;;;19.40;38.30;;;;;;5076648;28;20403;-75
2021/03/18 02:49:43;;;;;;;4.35;1.52;;;19.40;38.40;;;;;;5076398;28;20024;-75
2021/03/18 02:52:13;;;;;;;5.65;1.73;;;19.40;38.30;;;;;;5077156;28;20032;-76
2021/03/18 02:54:38;;;;;;;3.75;1.80;;;19.40;38.40;;;;;;5056866;28;20028;-73
2021/03/18 02:57:05;;;;;;;5.13;1.63;;;19.40;38.40;;;;;;5075737;28;20046;-75
2021/03/18 02:59:36;;;;;;;5.43;1.50;;;19.40;38.30;;;;;;5054590;28;20028;-75
2021/03/18 03:02:04;;;;;;;4.25;1.08;;;19.40;38.30;;;;;;5094800;28;20483;-75
2021/03/18 03:04:30;;;;;;;4.97;1.45;;;19.40;38.30;;;;;;5060163;28;20116;-74
2021/03/18 03:06:55;;;;;;;4.47;1.73;;;19.30;38.30;;;;;;5077239;28;20103;-74
2021/03/18 03:09:21;;;;;;;3.67;1.20;;;19.30;38.30;;;;;;5059817;28;20024;-75
2021/03/18 03:11:46;;;;;;;2.50;1.30;;;19.30;38.90;;;;;;5060036;28;20035;-74
2021/03/18 03:14:15;;;;;;;4.80;1.90;;;19.30;38.30;;;;;;5060009;28;20031;-75
2021/03/18 03:16:41;;;;;;;4.60;1.60;;;19.30;38.30;;;;;;5076496;28;20445;-75
2021/03/18 03:19:07;;;;;;;4.70;1.42;;;19.30;38.30;;;;;;5075811;28;20099;-75
2021/03/18 03:21:32;;;;;;;2.97;1.60;;;19.30;38.30;;;;;;5076435;28;20117;-75
2021/03/18 03:23:58;;;;;;;8.30;1.50;;;19.30;38.30;;;;;;5078710;28;20056;-75
2021/03/18 03:26:24;;;;;;;4.47;1.42;;;19.30;38.20;;;;;;5076138;28;20036;-76
2021/03/18 03:29:02;;;;;;;6.03;1.20;;;19.30;38.30;;;;;;5076592;28;20032;-76
2021/03/18 03:31:28;;;;;;;5.13;1.50;;;19.30;38.20;;;;;;5075955;28;20036;-76
2021/03/18 03:33:53;;;;;;;3.83;1.17;;;19.30;38.30;;;;;;5059427;28;20027;-74
2021/03/18 03:36:19;;;;;;;3.58;1.33;;;19.30;38.20;;;;;;5059239;28;20096;-74
2021/03/18 03:38:45;;;;;;;5.05;1.40;;;19.20;38.20;;;;;;5093912;28;20024;-74
2021/03/18 03:41:10;;;;;;;6.43;1.20;;;19.20;38.20;;;;;;5080394;28;20062;-74
2021/03/18 03:43:36;;;;;;;3.88;1.40;;;19.20;38.20;;;;;;5077251;28;20045;-73
2021/03/18 03:46:01;;;;;;;6.20;1.50;;;19.20;38.20;;;;;;5093948;28;20047;-74
2021/03/18 03:48:29;;;;;;;4.53;1.55;;;19.20;38.20;;;;;;5059468;28;20157;-75
2021/03/18 03:50:56;;;;;;;4.53;1.92;;;19.20;38.20;;;;;;5075387;28;20039;-73
2021/03/18 03:53:26;;;;;;;3.53;1.40;;;19.20;38.20;;;;;;5076012;28;20095;-74
2021/03/18 03:56:09;;;;;;;2.50;1.25;;;19.20;38.80;;;;;;5075697;28;20126;-73
2021/03/18 03:58:57;;;;;;;1.85;1.40;;;19.20;38.20;;;;;;5052649;28;20408;-74
2021/03/18 04:01:27;;;;;;;4.53;1.50;;;19.10;38.10;;;;;;5092055;28;20026;-74
2021/03/18 04:03:56;;;;;;;3.40;1.17;;;19.10;38.20;;;;;;5075300;28;20020;-75
2021/03/18 04:06:25;;;;;;;5.07;1.45;;;19.10;38.20;;;;;;5055783;28;20028;-75
2021/03/18 04:08:51;;;;;;;7.28;1.70;;;19.10;38.20;;;;;;5072969;28;20096;-74
2021/03/18 04:11:16;;;;;;;3.83;1.63;;;19.10;38.20;;;;;;5042533;28;20089;-73
2021/03/18 04:13:42;;;;;;;6.43;1.45;;;19.10;38.20;;;;;;5063663;28;20061;-74
2021/03/18 04:16:07;;;;;;;5.03;1.60;;;19.10;38.20;;;;;;5041997;28;20044;-74
2021/03/18 04:18:43;;;;;;;4.20;1.40;;;19.10;38.20;;;;;;5093082;28;20042;-74
2021/03/18 04:21:31;;;;;;;4.60;1.42;;;19.10;38.20;;;;;;5042224;28;20031;-75
2021/03/18 04:23:57;;;;;;;3.05;1.50;;;19.10;38.30;;;;;;5074958;28;20027;-75
2021/03/18 04:26:32;;;;;;;3.97;1.33;;;19.00;38.30;;;;;;5092912;28;20092;-75
2021/03/18 04:28:59;;;;;;;2.17;1.50;;;19.00;38.20;;;;;;5090276;28;20028;-74
2021/03/18 04:31:26;;;;;;;3.60;1.30;;;19.00;38.20;;;;;;5058233;28;20503;-74
2021/03/18 04:33:51;;;;;;;4.97;1.38;;;19.00;38.20;;;;;;5074711;28;20012;-75
2021/03/18 04:36:17;;;;;;;4.20;1.48;;;19.00;38.20;;;;;;5073857;28;20114;-75
2021/03/18 04:38:42;;;;;;;2.83;1.42;;;19.00;38.20;;;;;;5059371;28;20051;-75
2021/03/18 04:41:11;;;;;;;7.97;1.60;;;19.00;38.20;;;;;;5083138;28;20035;-74
2021/03/18 04:43:40;;;;;;;4.43;1.60;;;19.00;38.20;;;;;;5093463;28;20058;-74
2021/03/18 04:46:06;;;;;;;6.05;1.60;;;19.00;38.20;;;;;;5073913;28;20495;-75
2021/03/18 04:48:32;;;;;;;4.55;1.77;;;19.00;38.20;;;;;;5058984;28;20051;-74
2021/03/18 04:50:57;;;;;;;3.95;1.40;;;18.90;38.10;;;;;;5075049;28;20395;-74
2021/03/18 04:53:23;;;;;;;8.60;1.90;;;18.90;38.10;;;;;;5078332;28;20470;-74
2021/03/18 04:55:49;;;;;;;5.43;1.50;;;18.90;38.10;;;;;;5092706;28;20164;-75
2021/03/18 04:58:15;;;;;;;3.70;1.52;;;18.90;38.10;;;;;;5071514;28;20035;-76
2021/03/18 05:00:40;;;;;;;0.08;0.08;;;18.90;38.10;;;;;;5060458;28;20082;-77
2021/03/18 05:03:07;;;;;;;0.30;0.00;;;18.90;38.10;;;;;;5058001;28;20498;-77
2021/03/18 05:05:33;;;;;;;0.00;0.00;;;18.90;38.10;;;;;;5085128;28;20040;-71
2021/03/18 05:07:59;;;;;;;0.00;0.00;;;18.90;38.20;;;;;;5074180;28;20036;-71
2021/03/18 05:10:28;;;;;;;8.60;2.38;;;18.90;38.30;;;;;;5074711;28;20028;-71
2021/03/18 05:12:55;;;;;;;2.28;1.30;;;18.90;38.30;;;;;;5075258;28;20035;-71
2021/03/18 05:15:21;;;;;;;1.08;0.22;;;18.90;38.40;;;;;;5092266;28;20021;-71
2021/03/18 05:17:47;;;;;;;0.00;0.00;;;18.90;38.50;;;;;;5074942;28;20488;-70
2021/03/18 05:20:13;;;;;;;0.00;0.00;;;18.80;38.40;;;;;;5092690;28;20101;-70
2021/03/18 05:22:39;;;;;;;4.32;1.75;;;18.80;38.30;;;;;;5057464;28;20024;-70
2021/03/18 05:25:08;;;;;;;0.15;0.10;;;18.80;38.40;;;;;;5074632;28;20036;-70
2021/03/18 05:27:34;;;;;;;1.15;0.10;;;18.80;38.40;;;;;;5089314;28;20503;-70
2021/03/18 05:30:00;;;;;;;0.00;0.00;;;18.80;38.40;;;;;;5074826;28;20522;-70
2021/03/18 05:32:27;;;;;;;2.45;0.20;;;18.80;38.40;;;;;;5092302;28;20052;-71
2021/03/18 05:35:06;;;;;;;0.15;0.10;;;18.80;38.40;;;;;;5074019;28;20016;-75
2021/03/18 05:37:39;;;;;;;2.20;1.55;;;18.80;38.50;;;;;;5091931;28;20062;-70
2021/03/18 05:40:06;;;;;;;0.38;0.08;;;18.80;38.50;;;;;;5074428;28;20016;-70
2021/03/18 05:42:33;;;;;;;1.10;0.15;;;18.80;38.60;;;;;;5083524;28;20040;-70
2021/03/18 05:44:59;;;;;;;0.10;0.08;;;18.80;38.60;;;;;;5088392;28;20020;-70
2021/03/18 05:47:24;;;;;;;0.47;0.10;;;18.80;38.60;;;;;;5092194;28;20032;-70
2021/03/18 05:49:50;;;;;;;0.30;0.25;;;18.70;38.50;;;;;;5074441;28;20024;-71
2021/03/18 05:52:15;;;;;;;0.13;0.03;;;18.70;38.50;;;;;;5074983;28;20039;-71
2021/03/18 05:54:50;;;;;;;0.10;0.10;;;18.80;38.60;;;;;;5057438;28;20411;-71
2021/03/18 05:57:16;;;;;;;0.15;0.15;;;18.70;38.60;;;;;;5058286;28;20046;-71
2021/03/18 05:59:44;;;;;;;0.00;0.00;;;18.70;38.60;;;;;;5074863;28;20027;-71
2021/03/18 06:02:10;;;;;;;4.15;1.75;;;18.70;38.60;;;;;;5042643;28;20036;-71
2021/03/18 06:04:36;;;;;;;3.33;1.58;;;18.70;38.70;;;;;;5096128;28;20105;-71
2021/03/18 06:07:02;;;;;;;0.00;0.00;;;18.70;38.70;;;;;;5076922;28;20072;-71
2021/03/18 06:09:27;;;;;;;0.10;0.00;;;18.70;38.70;;;;;;5077107;28;20051;-71
2021/03/18 06:11:53;;;;;;;0.00;0.00;;;18.70;38.70;;;;;;5078259;28;20438;-71
2021/03/18 06:14:19;;;;;;;0.20;0.00;;;18.70;38.70;;;;;;5076343;28;20019;-71
2021/03/18 06:16:44;;;;;;;0.20;0.15;;;18.70;41.20;;;;;;5075585;28;20028;-71
2021/03/18 06:19:10;;;;;;;0.20;0.20;;;18.70;39.50;;;;;;5058201;28;20435;-71
2021/03/18 06:21:51;;;;;;;2.25;0.20;;;18.70;39.20;;;;;;5077589;28;20032;-71
2021/03/18 06:24:17;;;;;;;2.95;0.20;;;18.70;39.00;;;;;;5078254;28;20024;-70
2021/03/18 06:26:42;;;;;;;0.30;0.30;;;18.70;42.00;;;;;;5095858;28;20055;-71
2021/03/18 06:29:34;;;;;;;9.02;0.43;;;18.90;42.70;;;;;;5077083;28;20087;-70
2021/03/18 06:32:12;;;;;;;0.30;0.10;;;19.00;42.60;;;;;;5095625;28;20491;-72
2021/03/18 06:34:41;;;;;;;6.13;1.05;;;19.10;43.70;;;;;;5085098;28;20028;-72
2021/03/18 06:40:30;;;;;;;3.25;0.20;;;19.20;40.30;;;;;;5095096;28;20023;-74
2021/03/18 06:42:57;;;;;;;0.30;0.10;;;19.10;40.30;;;;;;5094883;28;20027;-74
2021/03/18 06:45:29;;;;;;;0.45;0.10;;;19.10;40.40;;;;;;5065950;28;20027;-75
2021/03/18 06:48:16;;;;;;;0.57;0.20;;;19.10;40.30;;;;;;5081487;28;20089;-75
2021/03/18 06:50:46;;;;;;;5.15;0.43;;;19.10;39.80;;;;;;5072019;28;20119;-75
2021/03/18 06:53:30;;;;;;;1.02;0.35;;;19.10;39.40;;;;;;5060869;28;20059;-75
2021/03/18 06:56:18;;;;;;;0.10;0.10;;;19.10;39.10;;;;;;5071728;28;20066;-75
2021/03/18 06:58:43;;;;;;;0.10;0.05;;;19.20;38.90;;;;;;5091807;28;20494;-75
2021/03/18 07:01:09;;;;;;;0.22;0.22;;;19.20;38.70;;;;;;5082047;28;20027;-75
2021/03/18 07:03:37;;;;;;;0.00;0.00;;;19.20;38.60;;;;;;5094848;28;20732;-75
2021/03/18 07:06:04;;;;;;;0.00;0.00;;;19.20;38.50;;;;;;5097324;28;20569;-75
2021/03/18 07:08:34;;;;;;;0.65;0.25;;;19.30;38.40;;;;;;5093771;28;20024;-74
2021/03/18 07:11:00;;;;;;;0.10;0.10;;;19.30;38.30;;;;;;5080861;28;20047;-75
2021/03/18 07:13:30;;;;;;;0.55;0.10;;;19.20;38.20;;;;;;5069839;28;20047;-75
2021/03/18 07:15:57;;;;;;;1.00;0.38;;;19.20;38.10;;;;;;5076655;28;20059;-75
2021/03/18 07:18:23;;;;;;;1.23;0.50;;;19.30;38.10;;;;;;5101017;28;20112;-75
2021/03/18 07:20:58;;;;;;;0.10;0.10;;;19.30;38.00;;;;;;5097342;28;20055;-74
2021/03/18 07:23:41;;;;;;;0.20;0.20;;;19.30;38.00;;;;;;5113124;28;20103;-75
2021/03/18 07:26:20;;;;;;;0.38;0.10;;;19.30;38.00;;;;;;5086011;28;20031;-75
2021/03/18 07:28:51;;;;;;;0.45;0.10;;;19.30;37.80;;;;;;5073640;28;20017;-74
2021/03/18 07:31:17;;;;;;;1.80;0.15;;;19.40;37.90;;;;;;5080993;28;20016;-74
2021/03/18 07:33:43;;;;;;;0.10;0.10;;;19.40;37.80;;;;;;5084335;28;20512;-75
2021/03/18 07:36:09;;;;;;;0.30;0.30;;;19.40;37.80;;;;;;5107423;28;20023;-74
2021/03/18 07:38:38;;;;;;;0.08;0.08;;;19.40;37.80;;;;;;5058854;28;20475;-74
2021/03/18 07:41:14;;;;;;;0.15;0.03;;;19.30;37.80;;;;;;5055342;28;20032;-74
2021/03/18 07:43:46;;;;;;;0.10;0.10;;;19.40;37.80;;;;;;5073315;28;20457;-74
2021/03/18 07:46:13;;;;;;;2.03;0.25;;;19.40;37.80;;;;;;5055787;28;20071;-74
2021/03/18 07:48:38;;;;;;;0.20;0.20;;;19.40;37.80;;;;;;5033329;28;20065;-74
2021/03/18 07:51:04;;;;;;;0.00;0.00;;;19.40;37.80;;;;;;5036287;28;20086;-74
2021/03/18 07:53:29;;;;;;;0.35;0.10;;;19.30;37.80;;;;;;5077847;28;20099;-74
2021/03/18 07:55:55;;;;;;;0.88;0.35;;;19.30;37.80;;;;;;5060492;28;20558;-74
2021/03/18 07:58:40;;;;;;;0.10;0.10;;;19.40;37.80;;;;;;5055657;28;20116;-74
2021/03/18 08:01:06;;;;;;;0.10;0.03;;;19.40;37.80;;;;;;5042735;28;20024;-74
2021/03/18 08:03:32;;;;;;;0.35;0.22;;;19.40;37.80;;;;;;5057235;28;20031;-76
2021/03/18 08:05:58;;;;;;;0.10;0.10;;;19.40;37.80;;;;;;5057864;28;20035;-74
2021/03/18 08:08:36;;;;;;;0.08;0.00;;;19.40;37.80;;;;;;5072708;28;20096;-76
2021/03/18 08:11:06;;;;;;;0.08;0.08;;;19.40;37.80;;;;;;5064716;28;20029;-77
2021/03/18 08:13:32;;;;;;;0.30;0.13;;;19.40;37.70;;;;;;5056154;28;20075;-75
2021/03/18 08:15:58;;;;;;;0.63;0.43;;;19.40;38.40;;;;;;5039552;28;20378;-74
2021/03/18 08:18:26;;;;;;;1.75;0.20;;;19.40;37.70;;;;;;5055379;28;20021;-77
2021/03/18 08:20:52;;;;;;;0.10;0.10;;;19.40;37.70;;;;;;5071338;28;20029;-78
2021/03/18 08:23:27;;;;;;;0.43;0.05;;;19.40;37.70;;;;;;5057167;28;20026;-75
2021/03/18 08:26:13;;;;;;;0.05;0.05;;;19.40;37.70;;;;;;5072736;28;20381;-75
2021/03/18 08:28:42;;;;;;;0.63;0.40;;;19.40;37.70;;;;;;5046153;28;20524;-74
2021/03/18 08:31:19;;;;;;;0.17;0.17;;;19.40;37.60;;;;;;5052738;28;20028;-76
2021/03/18 08:33:49;;;;;;;0.20;0.20;;;19.40;37.70;;;;;;5063985;28;20384;-76
2021/03/18 08:36:22;;;;;;;0.55;0.55;;;19.50;37.70;;;;;;5057785;28;20071;-75
2021/03/18 08:38:48;;;;;;;1.10;0.80;;;19.50;37.70;;;;;;5075327;28;20032;-76
2021/03/18 08:41:34;;;;;;;4.47;0.93;;;19.50;37.70;;;;;;5075376;28;20063;-79
2021/03/18 08:44:18;;;;;;;4.63;0.80;;;19.50;37.70;;;;;;5076684;28;20024;-77
2021/03/18 08:46:54;;;;;;;0.43;0.43;;;19.50;37.70;;;;;;5075253;28;20036;-77
2021/03/18 08:49:38;;;;;;;0.43;0.35;;;19.50;38.20;;;;;;5059340;28;20020;-78
2021/03/18 08:52:08;;;;;;;10.32;2.67;;;19.50;38.00;;;;;;5072854;28;20082;-76
2021/03/18 08:54:40;;;;;;;8.70;1.25;;;19.60;38.00;;;;;;5069227;28;20016;-79
2021/03/18 08:57:05;;;;;;;0.30;0.20;;;19.60;39.20;;;;;;5092628;28;20082;-75
2021/03/18 08:59:31;;;;;;;1.20;0.55;;;19.60;38.80;;;;;;5085039;28;20024;-74
2021/03/18 09:02:07;;;;;;;0.90;0.45;;;19.60;38.30;;;;;;5092945;28;20168;-75
2021/03/18 09:04:43;;;;;;;0.40;0.20;;;19.60;38.10;;;;;;5091262;28;20020;-74
2021/03/18 09:07:19;;;;;;;0.45;0.35;;;19.60;38.10;;;;;;5071734;28;20036;-75
2021/03/18 09:09:45;;;;;;;9.13;0.50;;;19.60;38.10;;;;;;5075490;28;20398;-75
2021/03/18 09:12:10;;;;;;;0.20;0.20;;;19.60;38.10;;;;;;5079439;28;20040;-76
2021/03/18 09:14:37;;;;;;;2.30;0.30;;;19.60;38.10;;;;;;5074746;28;20052;-72
2021/03/18 09:17:13;;;;;;;0.70;0.47;;;19.60;38.10;;;;;;5057117;28;20035;-72
2021/03/18 09:19:44;;;;;;;0.63;0.35;;;19.60;38.10;;;;;;5038861;28;20040;-72
2021/03/18 09:22:13;;;;;;;2.00;0.82;;;19.60;38.10;;;;;;5071074;28;20028;-72
2021/03/18 09:24:40;;;;;;;0.47;0.47;;;19.60;38.10;;;;;;5073959;28;20020;-72
2021/03/18 09:27:10;;;;;;;2.28;0.20;;;19.60;38.10;;;;;;5057813;28;20040;-72
2021/03/18 09:29:36;;;;;;;0.68;0.40;;;19.60;38.10;;;;;;5046519;28;20028;-72
2021/03/18 09:32:09;;;;;;;0.50;0.50;;;19.60;38.10;;;;;;5087276;28;20028;-72
2021/03/18 09:34:36;;;;;;;5.03;0.22;;;19.60;38.20;;;;;;5055681;28;20039;-72
2021/03/18 09:37:02;;;;;;;1.13;0.20;;;19.60;38.10;;;;;;5054531;28;20056;-72
2021/03/18 09:39:28;;;;;;;0.30;0.30;;;19.60;38.10;;;;;;5056927;28;20064;-72
2021/03/18 09:41:58;;;;;;;0.80;0.30;;;19.60;38.10;;;;;;5076651;28;20067;-72
2021/03/18 09:44:25;;;;;;;1.25;0.45;;;19.70;38.20;;;;;;5074853;28;20048;-72
2021/03/18 09:47:05;;;;;;;0.40;0.10;;;19.60;38.10;;;;;;5077253;28;20138;-72
2021/03/18 09:53:05;;;;;;;2.30;0.10;;;19.70;38.20;;;;;;5082372;28;20031;-72
2021/03/18 09:55:31;;;;;;;0.70;0.30;;;19.70;38.10;;;;;;5081212;28;20027;-72
2021/03/18 09:57:56;;;;;;;0.30;0.10;;;19.60;38.10;;;;;;5107467;28;20027;-72
2021/03/18 10:00:28;;;;;;;0.08;0.08;;;19.60;38.10;;;;;;5079647;28;20020;-72
2021/03/18 10:02:53;;;;;;;0.45;0.45;;;19.60;38.10;;;;;;5072900;28;20118;-72
2021/03/18 10:05:22;;;;;;;0.25;0.25;;;19.70;38.10;;;;;;5074011;28;20139;-72
2021/03/18 10:07:47;;;;;;;0.25;0.10;;;19.60;38.10;;;;;;5092241;28;20545;-72
2021/03/18 10:10:17;;;;;;;0.55;0.30;;;19.60;38.10;;;;;;5091688;28;20032;-72
2021/03/18 10:12:43;;;;;;;0.00;0.00;;;19.60;38.10;;;;;;5087378;28;20480;-72
2021/03/18 10:15:13;;;;;;;0.10;0.10;;;19.60;38.10;;;;;;5085629;28;20030;-72
2021/03/18 10:17:41;;;;;;;1.10;0.32;;;19.70;38.20;;;;;;5076565;28;20040;-72
2021/03/18 10:20:08;;;;;;;1.00;0.28;;;19.60;38.10;;;;;;5083509;28;20040;-72
2021/03/18 10:22:37;;;;;;;0.90;0.32;;;19.60;38.10;;;;;;5074241;28;20043;-72
2021/03/18 10:25:16;;;;;;;0.40;0.20;;;19.60;38.10;;;;;;5074085;28;20463;-72
2021/03/18 10:27:46;;;;;;;0.98;0.30;;;19.60;38.10;;;;;;5092220;28;20507;-72
2021/03/18 10:30:27;;;;;;;0.00;0.00;;;19.60;38.10;;;;;;5059522;28;20029;-72
2021/03/18 10:33:20;;;;;;;0.43;0.30;;;19.60;38.20;;;;;;5063279;28;20464;-72
2021/03/18 10:36:06;;;;;;;0.20;0.00;;;19.60;38.10;;;;;;5051618;28;20082;-72
2021/03/18 10:38:36;;;;;;;;;;;19.60;38.20;;;;;;5055946;28;20099;-72
2021/03/18 10:41:19;;;;;;;1.00;0.03;;;19.60;38.20;;;;;;5064254;28;19916;-72
2021/03/18 10:43:48;;;;;;;0.30;0.10;;;19.60;38.20;;;;;;5052959;28;20063;-73
2021/03/18 10:46:15;;;;;;;0.32;0.32;;;19.60;38.30;;;;;;5061163;28;20024;-72
2021/03/18 10:48:44;;;;;;;0.28;0.28;;;19.60;38.30;;;;;;5095146;28;20027;-72
2021/03/18 10:51:13;;;;;;;0.20;0.20;;;19.60;38.30;;;;;;5066948;28;20058;-72
2021/03/18 10:53:40;;;;;;;0.10;0.10;;;19.60;38.30;;;;;;5056476;28;20083;-72
2021/03/18 10:56:22;;;;;;;0.20;0.20;;;19.60;38.30;;;;;;5080915;28;20081;-72
2021/03/18 10:58:48;;;;;;;0.25;0.20;;;19.60;38.20;;;;;;5074615;28;20108;-72
2021/03/18 11:01:25;;;;;;;1.67;0.52;;;19.60;38.80;;;;;;5040662;28;20060;-72
2021/03/18 11:03:50;;;;;;;0.63;0.50;;;19.60;38.20;;;;;;5044839;28;20476;-72
2021/03/18 11:06:20;;;;;;;0.15;0.10;;;19.70;38.20;;;;;;5054286;28;20037;-72
2021/03/18 11:08:48;;;;;;;0.38;0.35;;;19.70;38.20;;;;;;5058648;28;20083;-72
2021/03/18 11:11:24;;;;;;;2.10;0.20;;;19.70;38.20;;;;;;5069984;28;20024;-72
2021/03/18 11:14:28;;;;;;;0.05;0.05;;;19.70;38.20;;;;;;5067779;28;20052;-72
2021/03/18 11:17:07;;;;;;;0.13;0.13;;;19.70;38.20;;;;;;5061614;28;20116;-72
2021/03/18 11:19:33;;;;;;;0.47;0.45;;;19.70;38.20;;;;;;5059144;28;20044;-72
2021/03/18 11:22:05;;;;;;;0.25;0.10;;;19.70;38.10;;;;;;5056292;28;20036;-72
2021/03/18 11:24:31;;;;;;;1.55;0.43;;;19.70;38.10;;;;;;5074597;28;20462;-72
2021/03/18 11:27:00;;;;;;;1.15;0.40;;;19.70;38.10;;;;;;5056130;28;20215;-72
2021/03/18 11:29:33;;;;;;;0.00;0.00;;;19.70;38.10;;;;;;5049209;28;20488;-72
2021/03/18 11:32:00;;;;;;;0.00;0.00;;;19.70;38.00;;;;;;5075102;28;20036;-73
2021/03/18 11:34:33;;;;;;;0.52;0.30;;;19.70;38.00;;;;;;5087215;28;20020;-73
2021/03/18 11:37:08;;;;;;;0.00;0.00;;;19.70;38.00;;;;;;5064255;28;20454;-73
2021/03/18 11:39:34;;;;;;;0.25;0.25;;;19.70;38.00;;;;;;5095750;28;20031;-73
2021/03/18 11:42:00;;;;;;;0.43;0.10;;;19.80;38.00;;;;;;5058566;28;20024;-72
2021/03/18 11:44:26;;;;;;;1.92;0.50;;;19.80;38.00;;;;;;5059940;28;20040;-72
2021/03/18 11:46:52;;;;;;;0.20;0.20;;;19.80;38.00;;;;;;5074897;28;20044;-73
2021/03/18 11:49:20;;;;;;;3.03;0.20;;;19.80;38.00;;;;;;5093554;28;20513;-72
2021/03/18 11:51:45;;;;;;;2.13;0.63;;;19.80;38.00;;;;;;5068258;28;20025;-72
2021/03/18 11:54:11;;;;;;;0.98;0.45;;;19.80;38.00;;;;;;5074098;28;20051;-72
2021/03/18 11:56:36;;;;;;;0.10;0.10;;;19.80;38.00;;;;;;5098987;28;20406;-72
2021/03/18 11:59:02;;;;;;;0.20;0.20;;;19.80;38.00;;;;;;5106191;28;20028;-72
2021/03/18 12:01:28;;;;;;;0.35;0.00;;;19.80;38.00;;;;;;5059841;28;20040;-72
2021/03/18 12:03:53;;;;;;;0.65;0.65;;;19.80;38.00;;;;;;5076524;28;20035;-72
2021/03/18 12:06:19;;;;;;;0.00;0.00;;;19.80;38.00;;;;;;5075558;28;20121;-72
2021/03/18 12:08:44;;;;;;;0.20;0.13;;;19.80;38.00;;;;;;5075874;28;20024;-72
2021/03/18 12:11:10;;;;;;;3.88;0.17;;;19.80;38.00;;;;;;5092419;28;20040;-72
2021/03/18 12:13:36;;;;;;;0.45;0.20;;;19.80;38.00;;;;;;5075676;28;20058;-72
2021/03/18 12:16:02;;;;;;;0.00;0.00;;;19.80;38.00;;;;;;5072543;28;20073;-72
2021/03/18 12:18:28;;;;;;;0.70;0.20;;;19.80;38.00;;;;;;5079042;28;20040;-72
2021/03/18 12:20:54;;;;;;;0.20;0.00;;;19.80;38.00;;;;;;5093572;28;20024;-72
2021/03/18 12:23:19;;;;;;;0.38;0.20;;;19.80;38.00;;;;;;5076403;28;20024;-72
2021/03/18 12:25:45;;;;;;;0.00;0.00;;;19.80;38.00;;;;;;5074095;28;20037;-72
2021/03/18 12:28:10;;;;;;;2.78;0.20;;;19.80;38.00;;;;;;5062346;28;20036;-72
2021/03/18 12:30:36;;;;;;;0.65;0.10;;;19.80;38.10;;;;;;5093764;28;20460;-72
2021/03/18 12:33:02;;;;;;;0.75;0.30;;;19.80;38.10;;;;;;5076053;28;20039;-72
2021/03/18 12:35:28;;;;;;;0.30;0.30;;;19.80;38.10;;;;;;5093333;28;20073;-72
2021/03/18 12:37:53;;;;;;;1.10;0.38;;;19.80;38.20;;;;;;5092448;28;20044;-72
2021/03/18 12:40:20;;;;;;;1.25;0.50;;;19.70;38.10;;;;;;5075486;28;20050;-72
2021/03/18 12:42:45;;;;;;;0.75;0.10;;;19.80;38.20;;;;;;5058572;28;20093;-72
2021/03/18 12:45:15;;;;;;;2.45;0.30;;;19.70;38.20;;;;;;5058156;28;20028;-72
2021/03/18 12:47:41;;;;;;;0.63;0.10;;;19.70;38.20;;;;;;5074778;28;20115;-72
2021/03/18 12:50:09;;;;;;;0.35;0.13;;;19.70;38.20;;;;;;5062708;28;20111;-72
2021/03/18 12:52:34;;;;;;;0.30;0.30;;;19.70;38.30;;;;;;5074297;28;20036;-72
2021/03/18 12:55:00;;;;;;;0.45;0.45;;;19.70;38.30;;;;;;5094752;28;20026;-73
2021/03/18 12:57:26;;;;;;;1.05;0.30;;;19.70;38.30;;;;;;5073847;28;20183;-72
2021/03/18 13:00:10;;;;;;;0.32;0.32;;;19.60;38.30;;;;;;5092341;28;20028;-72
2021/03/18 13:02:36;;;;;;;0.10;0.10;;;19.70;38.40;;;;;;5073505;28;20392;-72
2021/03/18 13:05:02;;;;;;;0.52;0.40;;;19.60;39.00;;;;;;5075317;28;20035;-72